sensor_id;sensor_type;location;lat;lon;timestamp;temperature;humidity
72650;SHT31;61467;50.674;4.618;2024-03-23T00:54:18;8.94;77.68
72650;SHT31;61467;50.674;4.618;2024-03-23T00:56:45;9.13;77.52
72650;SHT31;61467;50.674;4.618;2024-03-23T00:59:11;9.13;77.61
72650;SHT31;61467;50.674;4.618;2024-03-23T01:01:39;9.27;77.63
72650;SHT31;61467;50.674;4.618;2024-03-23T01:04:05;9.31;78.01
72650;SHT31;61467;50.674;4.618;2024-03-23T01:06:32;9.17;77.97
72650;SHT31;61467;50.674;4.618;2024-03-23T01:08:58;9.17;77.25
72650;SHT31;61467;50.674;4.618;2024-03-23T01:11:27;9.24;77.73
72650;SHT31;61467;50.674;4.618;2024-03-23T01:13:54;9.14;77.71
72650;SHT31;61467;50.674;4.618;2024-03-23T01:16:21;9.24;77.90
72650;SHT31;61467;50.674;4.618;2024-03-23T01:18:47;9.20;77.75
72650;SHT31;61467;50.674;4.618;2024-03-23T01:21:14;9.23;77.80
72650;SHT31;61467;50.674;4.618;2024-03-23T01:23:40;8.99;78.63
72650;SHT31;61467;50.674;4.618;2024-03-23T01:26:07;9.15;78.45
72650;SHT31;61467;50.674;4.618;2024-03-23T01:28:35;9.15;78.40
72650;SHT31;61467;50.674;4.618;2024-03-23T01:31:02;9.28;78.19
72650;SHT31;61467;50.674;4.618;2024-03-23T01:33:28;9.31;77.94
72650;SHT31;61467;50.674;4.618;2024-03-23T01:35:55;9.25;77.65
72650;SHT31;61467;50.674;4.618;2024-03-23T01:38:21;9.21;78.02
72650;SHT31;61467;50.674;4.618;2024-03-23T01:40:48;9.18;78.44
72650;SHT31;61467;50.674;4.618;2024-03-23T01:43:14;9.15;78.46
72650;SHT31;61467;50.674;4.618;2024-03-23T01:45:42;9.20;78.05
72650;SHT31;61467;50.674;4.618;2024-03-23T01:48:08;9.23;78.28
72650;SHT31;61467;50.674;4.618;2024-03-23T01:50:38;9.32;78.20
72650;SHT31;61467;50.674;4.618;2024-03-23T01:53:04;9.20;78.05
72650;SHT31;61467;50.674;4.618;2024-03-23T01:55:32;9.17;78.02
72650;SHT31;61467;50.674;4.618;2024-03-23T01:57:58;9.13;78.35
72650;SHT31;61467;50.674;4.618;2024-03-23T02:00:25;9.07;78.21
72650;SHT31;61467;50.674;4.618;2024-03-23T02:02:54;9.00;78.53
72650;SHT31;61467;50.674;4.618;2024-03-23T02:05:22;8.93;78.67
72650;SHT31;61467;50.674;4.618;2024-03-23T02:07:48;8.88;78.94
72650;SHT31;61467;50.674;4.618;2024-03-23T02:10:15;8.91;78.83
72650;SHT31;61467;50.674;4.618;2024-03-23T02:12:40;8.73;79.12
72650;SHT31;61467;50.674;4.618;2024-03-23T02:15:07;8.86;79.02
72650;SHT31;61467;50.674;4.618;2024-03-23T02:17:35;8.91;78.92
72650;SHT31;61467;50.674;4.618;2024-03-23T02:20:04;8.83;79.17
72650;SHT31;61467;50.674;4.618;2024-03-23T02:22:36;8.81;79.21
72650;SHT31;61467;50.674;4.618;2024-03-23T02:25:06;8.88;79.06
72650;SHT31;61467;50.674;4.618;2024-03-23T02:27:32;8.93;78.65
72650;SHT31;61467;50.674;4.618;2024-03-23T02:30:00;8.80;79.01
72650;SHT31;61467;50.674;4.618;2024-03-23T02:32:26;8.88;78.71
72650;SHT31;61467;50.674;4.618;2024-03-23T02:34:53;8.91;78.66
72650;SHT31;61467;50.674;4.618;2024-03-23T02:37:19;9.00;78.28
72650;SHT31;61467;50.674;4.618;2024-03-23T02:39:46;8.77;78.98
72650;SHT31;61467;50.674;4.618;2024-03-23T02:42:13;8.83;78.63
72650;SHT31;61467;50.674;4.618;2024-03-23T02:44:42;8.90;78.60
72650;SHT31;61467;50.674;4.618;2024-03-23T02:47:08;8.94;78.90
72650;SHT31;61467;50.674;4.618;2024-03-23T02:49:35;8.88;78.86
72650;SHT31;61467;50.674;4.618;2024-03-23T02:52:01;8.96;78.97
72650;SHT31;61467;50.674;4.618;2024-03-23T02:54:28;9.00;78.67
72650;SHT31;61467;50.674;4.618;2024-03-23T02:56:54;8.96;78.77
72650;SHT31;61467;50.674;4.618;2024-03-23T02:59:22;8.91;78.95
72650;SHT31;61467;50.674;4.618;2024-03-23T03:01:48;8.62;79.74
72650;SHT31;61467;50.674;4.618;2024-03-23T03:04:15;8.81;79.93
72650;SHT31;61467;50.674;4.618;2024-03-23T03:06:41;8.81;79.76
72650;SHT31;61467;50.674;4.618;2024-03-23T03:09:08;8.45;79.85
72650;SHT31;61467;50.674;4.618;2024-03-23T03:11:34;8.56;80.05
72650;SHT31;61467;50.674;4.618;2024-03-23T03:14:01;8.72;80.01
72650;SHT31;61467;50.674;4.618;2024-03-23T03:16:28;8.70;79.99
72650;SHT31;61467;50.674;4.618;2024-03-23T03:18:55;8.65;79.97
72650;SHT31;61467;50.674;4.618;2024-03-23T03:21:21;8.57;80.11
72650;SHT31;61467;50.674;4.618;2024-03-23T03:23:48;8.43;80.35
72650;SHT31;61467;50.674;4.618;2024-03-23T03:26:15;8.43;80.64
72650;SHT31;61467;50.674;4.618;2024-03-23T03:28:42;8.22;81.93
72650;SHT31;61467;50.674;4.618;2024-03-23T03:31:09;8.32;81.71
72650;SHT31;61467;50.674;4.618;2024-03-23T03:33:37;8.59;81.20
72650;SHT31;61467;50.674;4.618;2024-03-23T03:36:03;8.55;80.98
72650;SHT31;61467;50.674;4.618;2024-03-23T03:38:31;8.72;80.99
72650;SHT31;61467;50.674;4.618;2024-03-23T03:40:57;8.70;80.83
72650;SHT31;61467;50.674;4.618;2024-03-23T03:43:25;8.84;80.68
72650;SHT31;61467;50.674;4.618;2024-03-23T03:45:52;8.59;80.89
72650;SHT31;61467;50.674;4.618;2024-03-23T03:48:19;8.62;81.14
72650;SHT31;61467;50.674;4.618;2024-03-23T03:50:46;8.66;81.18
72650;SHT31;61467;50.674;4.618;2024-03-23T03:53:13;8.70;80.76
72650;SHT31;61467;50.674;4.618;2024-03-23T03:55:39;8.65;80.87
72650;SHT31;61467;50.674;4.618;2024-03-23T03:58:06;8.60;81.47
72650;SHT31;61467;50.674;4.618;2024-03-23T04:00:32;8.63;81.00
72650;SHT31;61467;50.674;4.618;2024-03-23T04:02:59;8.62;80.86
72650;SHT31;61467;50.674;4.618;2024-03-23T04:05:25;8.59;81.07
72650;SHT31;61467;50.674;4.618;2024-03-23T04:07:53;8.79;80.52
72650;SHT31;61467;50.674;4.618;2024-03-23T04:10:19;8.63;80.79
72650;SHT31;61467;50.674;4.618;2024-03-23T04:12:47;8.74;80.75
72650;SHT31;61467;50.674;4.618;2024-03-23T04:15:13;8.56;81.16
72650;SHT31;61467;50.674;4.618;2024-03-23T04:17:40;8.52;81.24
72650;SHT31;61467;50.674;4.618;2024-03-23T04:20:09;8.57;80.65
72650;SHT31;61467;50.674;4.618;2024-03-23T04:22:36;8.48;81.15
72650;SHT31;61467;50.674;4.618;2024-03-23T04:25:04;8.45;81.42
72650;SHT31;61467;50.674;4.618;2024-03-23T04:27:32;8.43;81.22
72650;SHT31;61467;50.674;4.618;2024-03-23T04:29:58;8.38;81.36
72650;SHT31;61467;50.674;4.618;2024-03-23T04:32:26;8.59;81.24
72650;SHT31;61467;50.674;4.618;2024-03-23T04:34:52;8.62;81.01
72650;SHT31;61467;50.674;4.618;2024-03-23T04:37:20;8.74;80.60
72650;SHT31;61467;50.674;4.618;2024-03-23T04:39:46;8.74;80.21
72650;SHT31;61467;50.674;4.618;2024-03-23T04:42:16;8.57;80.76
72650;SHT31;61467;50.674;4.618;2024-03-23T04:44:43;8.60;80.36
72650;SHT31;61467;50.674;4.618;2024-03-23T04:47:10;8.69;80.13
72650;SHT31;61467;50.674;4.618;2024-03-23T04:49:37;8.66;80.11
72650;SHT31;61467;50.674;4.618;2024-03-23T04:52:05;8.39;80.15
72650;SHT31;61467;50.674;4.618;2024-03-23T04:54:32;8.43;80.29
72650;SHT31;61467;50.674;4.618;2024-03-23T04:56:59;8.49;79.63
72650;SHT31;61467;50.674;4.618;2024-03-23T04:59:27;8.50;79.13
72650;SHT31;61467;50.674;4.618;2024-03-23T05:01:53;8.20;79.58
72650;SHT31;61467;50.674;4.618;2024-03-23T05:04:20;8.39;79.50
72650;SHT31;61467;50.674;4.618;2024-03-23T05:06:46;8.59;79.10
72650;SHT31;61467;50.674;4.618;2024-03-23T05:09:13;8.41;78.82
72650;SHT31;61467;50.674;4.618;2024-03-23T05:11:39;8.39;78.94
72650;SHT31;61467;50.674;4.618;2024-03-23T05:14:06;8.28;79.07
72650;SHT31;61467;50.674;4.618;2024-03-23T05:16:34;7.49;79.57
72650;SHT31;61467;50.674;4.618;2024-03-23T05:19:01;6.81;78.93
72650;SHT31;61467;50.674;4.618;2024-03-23T05:21:26;6.91;79.57
72650;SHT31;61467;50.674;4.618;2024-03-23T05:23:54;6.96;80.09
72650;SHT31;61467;50.674;4.618;2024-03-23T05:26:20;6.89;81.12
72650;SHT31;61467;50.674;4.618;2024-03-23T05:28:47;6.92;79.55
72650;SHT31;61467;50.674;4.618;2024-03-23T05:31:22;7.27;77.84
72650;SHT31;61467;50.674;4.618;2024-03-23T05:33:51;7.30;76.92
72650;SHT31;61467;50.674;4.618;2024-03-23T05:36:17;7.63;76.53
72650;SHT31;61467;50.674;4.618;2024-03-23T05:38:45;7.47;75.86
72650;SHT31;61467;50.674;4.618;2024-03-23T05:41:12;7.33;76.54
72650;SHT31;61467;50.674;4.618;2024-03-23T05:43:39;7.53;75.50
72650;SHT31;61467;50.674;4.618;2024-03-23T05:46:05;7.84;75.87
72650;SHT31;61467;50.674;4.618;2024-03-23T05:48:33;7.70;75.76
72650;SHT31;61467;50.674;4.618;2024-03-23T05:51:00;7.83;76.06
72650;SHT31;61467;50.674;4.618;2024-03-23T05:53:28;7.83;75.49
72650;SHT31;61467;50.674;4.618;2024-03-23T05:56:00;7.81;76.07
72650;SHT31;61467;50.674;4.618;2024-03-23T05:58:29;7.95;76.39
72650;SHT31;61467;50.674;4.618;2024-03-23T06:00:57;7.97;76.49
72650;SHT31;61467;50.674;4.618;2024-03-23T06:03:24;7.90;77.24
72650;SHT31;61467;50.674;4.618;2024-03-23T06:05:51;8.02;77.45
72650;SHT31;61467;50.674;4.618;2024-03-23T06:08:20;8.02;77.78
72650;SHT31;61467;50.674;4.618;2024-03-23T06:10:46;8.05;77.89
72650;SHT31;61467;50.674;4.618;2024-03-23T06:13:13;8.02;78.17
72650;SHT31;61467;50.674;4.618;2024-03-23T06:15:39;8.08;78.40
72650;SHT31;61467;50.674;4.618;2024-03-23T06:18:06;7.87;78.46
72650;SHT31;61467;50.674;4.618;2024-03-23T06:20:33;7.56;79.47
72650;SHT31;61467;50.674;4.618;2024-03-23T06:23:00;7.63;79.06
72650;SHT31;61467;50.674;4.618;2024-03-23T06:25:28;7.66;79.37
72650;SHT31;61467;50.674;4.618;2024-03-23T06:27:55;7.74;79.28
72650;SHT31;61467;50.674;4.618;2024-03-23T06:30:21;7.70;78.84
72650;SHT31;61467;50.674;4.618;2024-03-23T06:32:48;7.94;78.77
72650;SHT31;61467;50.674;4.618;2024-03-23T06:35:14;8.14;78.04
72650;SHT31;61467;50.674;4.618;2024-03-23T06:37:41;7.94;78.36
72650;SHT31;61467;50.674;4.618;2024-03-23T06:40:08;7.84;78.39
72650;SHT31;61467;50.674;4.618;2024-03-23T06:42:37;7.87;78.35
72650;SHT31;61467;50.674;4.618;2024-03-23T06:45:03;7.99;78.65
72650;SHT31;61467;50.674;4.618;2024-03-23T06:47:31;8.16;78.29
72650;SHT31;61467;50.674;4.618;2024-03-23T06:49:57;7.99;79.07
72650;SHT31;61467;50.674;4.618;2024-03-23T06:52:24;8.01;79.05
72650;SHT31;61467;50.674;4.618;2024-03-23T06:54:50;7.94;78.87
72650;SHT31;61467;50.674;4.618;2024-03-23T06:57:16;7.75;79.41
72650;SHT31;61467;50.674;4.618;2024-03-23T06:59:44;7.71;79.02
72650;SHT31;61467;50.674;4.618;2024-03-23T07:02:11;7.46;79.25
72650;SHT31;61467;50.674;4.618;2024-03-23T07:04:37;7.66;79.82
72650;SHT31;61467;50.674;4.618;2024-03-23T07:07:05;7.88;79.24
72650;SHT31;61467;50.674;4.618;2024-03-23T07:09:31;7.52;78.95
72650;SHT31;61467;50.674;4.618;2024-03-23T07:11:58;7.32;79.76
72650;SHT31;61467;50.674;4.618;2024-03-23T07:14:24;7.44;79.01
72650;SHT31;61467;50.674;4.618;2024-03-23T07:16:52;7.39;79.42
72650;SHT31;61467;50.674;4.618;2024-03-23T07:19:18;7.63;79.80
72650;SHT31;61467;50.674;4.618;2024-03-23T07:21:45;7.66;79.23
72650;SHT31;61467;50.674;4.618;2024-03-23T07:24:13;7.66;79.11
72650;SHT31;61467;50.674;4.618;2024-03-23T07:26:40;7.80;79.18
72650;SHT31;61467;50.674;4.618;2024-03-23T07:29:06;7.93;78.35
72650;SHT31;61467;50.674;4.618;2024-03-23T07:31:33;7.88;78.41
72650;SHT31;61467;50.674;4.618;2024-03-23T07:34:01;7.73;79.46
72650;SHT31;61467;50.674;4.618;2024-03-23T07:36:28;8.04;78.36
72650;SHT31;61467;50.674;4.618;2024-03-23T07:38:54;8.18;77.22
72650;SHT31;61467;50.674;4.618;2024-03-23T07:41:21;7.91;78.34
72650;SHT31;61467;50.674;4.618;2024-03-23T07:43:48;8.05;78.36
72650;SHT31;61467;50.674;4.618;2024-03-23T07:46:15;8.28;77.78
72650;SHT31;61467;50.674;4.618;2024-03-23T07:48:41;8.15;77.39
72650;SHT31;61467;50.674;4.618;2024-03-23T07:51:12;7.77;77.92
72650;SHT31;61467;50.674;4.618;2024-03-23T07:53:38;8.09;78.02
72650;SHT31;61467;50.674;4.618;2024-03-23T07:56:06;8.41;77.36
72650;SHT31;61467;50.674;4.618;2024-03-23T07:58:33;8.63;80.18
72650;SHT31;61467;50.674;4.618;2024-03-23T08:01:04;8.90;77.90
72650;SHT31;61467;50.674;4.618;2024-03-23T08:03:31;9.20;78.26
72650;SHT31;61467;50.674;4.618;2024-03-23T08:05:58;9.30;77.56
72650;SHT31;61467;50.674;4.618;2024-03-23T08:08:25;8.94;74.45
72650;SHT31;61467;50.674;4.618;2024-03-23T08:10:52;8.93;74.67
72650;SHT31;61467;50.674;4.618;2024-03-23T08:13:19;8.76;75.09
72650;SHT31;61467;50.674;4.618;2024-03-23T08:15:45;8.70;75.46
72650;SHT31;61467;50.674;4.618;2024-03-23T08:18:13;8.39;76.28
72650;SHT31;61467;50.674;4.618;2024-03-23T08:20:41;8.31;75.66
72650;SHT31;61467;50.674;4.618;2024-03-23T08:23:07;8.43;75.97
72650;SHT31;61467;50.674;4.618;2024-03-23T08:25:35;8.42;75.51
72650;SHT31;61467;50.674;4.618;2024-03-23T08:28:01;8.31;76.82
72650;SHT31;61467;50.674;4.618;2024-03-23T08:30:29;7.94;77.34
72650;SHT31;61467;50.674;4.618;2024-03-23T08:32:55;7.81;77.43
72650;SHT31;61467;50.674;4.618;2024-03-23T08:35:22;7.90;77.63
72650;SHT31;61467;50.674;4.618;2024-03-23T08:37:48;7.88;77.69
72650;SHT31;61467;50.674;4.618;2024-03-23T08:40:15;8.04;76.90
72650;SHT31;61467;50.674;4.618;2024-03-23T08:42:42;8.35;77.19
72650;SHT31;61467;50.674;4.618;2024-03-23T08:45:10;8.39;76.28
72650;SHT31;61467;50.674;4.618;2024-03-23T08:47:35;8.28;75.87
72650;SHT31;61467;50.674;4.618;2024-03-23T08:50:03;8.18;76.06
72650;SHT31;61467;50.674;4.618;2024-03-23T08:52:29;8.42;75.59
72650;SHT31;61467;50.674;4.618;2024-03-23T08:54:56;8.55;76.17
72650;SHT31;61467;50.674;4.618;2024-03-23T08:57:22;8.65;76.23
72650;SHT31;61467;50.674;4.618;2024-03-23T08:59:51;8.46;75.44
72650;SHT31;61467;50.674;4.618;2024-03-23T09:02:16;8.63;75.03
72650;SHT31;61467;50.674;4.618;2024-03-23T09:04:44;8.69;74.88
72650;SHT31;61467;50.674;4.618;2024-03-23T09:07:10;9.38;80.96
72650;SHT31;61467;50.674;4.618;2024-03-23T09:09:38;9.73;73.98
72650;SHT31;61467;50.674;4.618;2024-03-23T09:12:04;9.54;73.04
72650;SHT31;61467;50.674;4.618;2024-03-23T09:14:32;9.61;74.06
72650;SHT31;61467;50.674;4.618;2024-03-23T09:16:59;9.83;73.02
72650;SHT31;61467;50.674;4.618;2024-03-23T09:19:27;9.68;70.58
72650;SHT31;61467;50.674;4.618;2024-03-23T09:21:53;9.69;71.30
72650;SHT31;61467;50.674;4.618;2024-03-23T09:24:20;9.58;69.16
72650;SHT31;61467;50.674;4.618;2024-03-23T09:26:46;9.39;68.74
72650;SHT31;61467;50.674;4.618;2024-03-23T09:29:13;9.00;69.79
72650;SHT31;61467;50.674;4.618;2024-03-23T09:31:39;9.10;70.43
72650;SHT31;61467;50.674;4.618;2024-03-23T09:34:08;9.28;69.99
72650;SHT31;61467;50.674;4.618;2024-03-23T09:36:34;9.10;68.85
72650;SHT31;61467;50.674;4.618;2024-03-23T09:39:01;9.11;68.88
72650;SHT31;61467;50.674;4.618;2024-03-23T09:41:27;8.91;69.36
72650;SHT31;61467;50.674;4.618;2024-03-23T09:43:54;8.97;69.09
72650;SHT31;61467;50.674;4.618;2024-03-23T09:46:20;9.13;68.21
72650;SHT31;61467;50.674;4.618;2024-03-23T09:48:47;9.20;69.16
72650;SHT31;61467;50.674;4.618;2024-03-23T09:51:14;9.39;68.61
72650;SHT31;61467;50.674;4.618;2024-03-23T09:53:41;9.59;68.08
72650;SHT31;61467;50.674;4.618;2024-03-23T09:56:07;9.79;67.08
72650;SHT31;61467;50.674;4.618;2024-03-23T09:58:35;9.76;65.84
72650;SHT31;61467;50.674;4.618;2024-03-23T10:01:02;9.51;66.87
72650;SHT31;61467;50.674;4.618;2024-03-23T10:03:29;9.32;66.84
72650;SHT31;61467;50.674;4.618;2024-03-23T10:06:01;9.36;66.39
72650;SHT31;61467;50.674;4.618;2024-03-23T10:08:30;9.56;65.14
72650;SHT31;61467;50.674;4.618;2024-03-23T10:11:12;9.44;65.70
72650;SHT31;61467;50.674;4.618;2024-03-23T10:13:41;9.36;66.02
72650;SHT31;61467;50.674;4.618;2024-03-23T10:16:08;9.42;65.71
72650;SHT31;61467;50.674;4.618;2024-03-23T10:18:37;9.35;65.13
72650;SHT31;61467;50.674;4.618;2024-03-23T10:21:07;8.99;63.97
72650;SHT31;61467;50.674;4.618;2024-03-23T10:23:38;9.10;66.18
72650;SHT31;61467;50.674;4.618;2024-03-23T10:26:16;9.31;65.12
72650;SHT31;61467;50.674;4.618;2024-03-23T10:28:54;9.08;64.29
72650;SHT31;61467;50.674;4.618;2024-03-23T10:31:21;8.97;64.90
72650;SHT31;61467;50.674;4.618;2024-03-23T10:33:48;8.94;64.93
72650;SHT31;61467;50.674;4.618;2024-03-23T10:36:15;9.07;65.26
72650;SHT31;61467;50.674;4.618;2024-03-23T10:38:44;9.08;65.25
72650;SHT31;61467;50.674;4.618;2024-03-23T10:41:10;9.35;64.69
72650;SHT31;61467;50.674;4.618;2024-03-23T10:43:38;9.63;64.00
72650;SHT31;61467;50.674;4.618;2024-03-23T10:46:05;9.73;62.60
72650;SHT31;61467;50.674;4.618;2024-03-23T10:48:32;9.49;62.57
72650;SHT31;61467;50.674;4.618;2024-03-23T10:50:58;9.39;63.41
72650;SHT31;61467;50.674;4.618;2024-03-23T10:53:27;9.31;62.25
72650;SHT31;61467;50.674;4.618;2024-03-23T10:55:55;9.24;62.25
72650;SHT31;61467;50.674;4.618;2024-03-23T10:58:26;9.21;63.33
72650;SHT31;61467;50.674;4.618;2024-03-23T11:00:53;9.38;63.64
72650;SHT31;61467;50.674;4.618;2024-03-23T11:03:31;9.55;63.78
72650;SHT31;61467;50.674;4.618;2024-03-23T11:05:57;9.89;63.09
72650;SHT31;61467;50.674;4.618;2024-03-23T11:08:31;10.21;63.76
72650;SHT31;61467;50.674;4.618;2024-03-23T11:13:51;10.41;60.40
72650;SHT31;61467;50.674;4.618;2024-03-23T11:16:22;10.57;60.27
72650;SHT31;61467;50.674;4.618;2024-03-23T11:18:49;10.91;60.25
72650;SHT31;61467;50.674;4.618;2024-03-23T11:21:53;10.96;58.67
72650;SHT31;61467;50.674;4.618;2024-03-23T11:24:20;11.16;56.80
72650;SHT31;61467;50.674;4.618;2024-03-23T11:26:47;11.26;57.39
72650;SHT31;61467;50.674;4.618;2024-03-23T11:29:16;11.36;57.05
72650;SHT31;61467;50.674;4.618;2024-03-23T11:31:47;11.33;57.06
72650;SHT31;61467;50.674;4.618;2024-03-23T11:34:13;11.18;56.49
72650;SHT31;61467;50.674;4.618;2024-03-23T11:36:41;11.22;56.02
72650;SHT31;61467;50.674;4.618;2024-03-23T11:39:13;11.18;55.53
72650;SHT31;61467;50.674;4.618;2024-03-23T11:41:48;11.18;55.00
72650;SHT31;61467;50.674;4.618;2024-03-23T11:44:17;11.26;55.40
72650;SHT31;61467;50.674;4.618;2024-03-23T11:46:44;11.40;55.86
72650;SHT31;61467;50.674;4.618;2024-03-23T11:49:20;11.52;54.74
72650;SHT31;61467;50.674;4.618;2024-03-23T11:51:49;11.69;55.19
72650;SHT31;61467;50.674;4.618;2024-03-23T11:54:15;11.60;51.70
72650;SHT31;61467;50.674;4.618;2024-03-23T11:56:54;11.77;50.08
72650;SHT31;61467;50.674;4.618;2024-03-23T11:59:32;11.87;50.93
72650;SHT31;61467;50.674;4.618;2024-03-23T12:01:59;11.90;51.79
72650;SHT31;61467;50.674;4.618;2024-03-23T12:04:26;11.97;50.83
72650;SHT31;61467;50.674;4.618;2024-03-23T12:07:09;11.39;52.27
72650;SHT31;61467;50.674;4.618;2024-03-23T12:09:35;11.08;55.88
72650;SHT31;61467;50.674;4.618;2024-03-23T12:12:07;10.89;58.28
72650;SHT31;61467;50.674;4.618;2024-03-23T12:14:34;10.69;61.05
72650;SHT31;61467;50.674;4.618;2024-03-23T12:17:10;10.03;61.74
72650;SHT31;61467;50.674;4.618;2024-03-23T12:19:37;9.59;64.05
72650;SHT31;61467;50.674;4.618;2024-03-23T12:22:04;9.00;67.57
72650;SHT31;61467;50.674;4.618;2024-03-23T12:24:31;8.53;66.87
72650;SHT31;61467;50.674;4.618;2024-03-23T12:27:00;8.32;65.27
72650;SHT31;61467;50.674;4.618;2024-03-23T12:29:28;8.67;64.21
72650;SHT31;61467;50.674;4.618;2024-03-23T12:31:59;9.01;63.95
72650;SHT31;61467;50.674;4.618;2024-03-23T12:34:25;9.07;63.61
72650;SHT31;61467;50.674;4.618;2024-03-23T12:36:52;9.13;61.90
72650;SHT31;61467;50.674;4.618;2024-03-23T12:39:18;9.20;62.63
72650;SHT31;61467;50.674;4.618;2024-03-23T12:41:46;9.11;63.36
72650;SHT31;61467;50.674;4.618;2024-03-23T12:44:12;9.51;62.06
72650;SHT31;61467;50.674;4.618;2024-03-23T12:46:39;9.56;62.50
72650;SHT31;61467;50.674;4.618;2024-03-23T12:49:06;10.16;64.23
72650;SHT31;61467;50.674;4.618;2024-03-23T12:51:34;10.69;62.17
72650;SHT31;61467;50.674;4.618;2024-03-23T12:54:00;10.98;61.36
72650;SHT31;61467;50.674;4.618;2024-03-23T12:56:27;11.09;61.49
72650;SHT31;61467;50.674;4.618;2024-03-23T12:58:53;11.37;61.25
72650;SHT31;61467;50.674;4.618;2024-03-23T13:01:22;11.56;59.06
72650;SHT31;61467;50.674;4.618;2024-03-23T13:03:49;11.67;59.99
72650;SHT31;61467;50.674;4.618;2024-03-23T13:06:18;11.81;58.35
72650;SHT31;61467;50.674;4.618;2024-03-23T13:08:44;11.84;55.97
72650;SHT31;61467;50.674;4.618;2024-03-23T13:11:12;11.84;56.95
72650;SHT31;61467;50.674;4.618;2024-03-23T13:13:38;12.12;56.44
72650;SHT31;61467;50.674;4.618;2024-03-23T13:16:05;11.93;56.20
72650;SHT31;61467;50.674;4.618;2024-03-23T13:18:32;11.73;55.62
72650;SHT31;61467;50.674;4.618;2024-03-23T13:20:59;12.10;54.80
72650;SHT31;61467;50.674;4.618;2024-03-23T13:23:26;12.43;54.33
72650;SHT31;61467;50.674;4.618;2024-03-23T13:25:54;12.52;54.10
72650;SHT31;61467;50.674;4.618;2024-03-23T13:28:21;12.64;54.94
72650;SHT31;61467;50.674;4.618;2024-03-23T13:30:52;12.64;53.91
72650;SHT31;61467;50.674;4.618;2024-03-23T13:33:18;13.23;61.76
72650;SHT31;61467;50.674;4.618;2024-03-23T13:35:51;13.14;58.88
72650;SHT31;61467;50.674;4.618;2024-03-23T13:38:17;12.52;50.96
72650;SHT31;61467;50.674;4.618;2024-03-23T13:40:55;12.45;56.90
72650;SHT31;61467;50.674;4.618;2024-03-23T13:43:21;12.10;55.16
72650;SHT31;61467;50.674;4.618;2024-03-23T13:45:52;12.11;53.04
72650;SHT31;61467;50.674;4.618;2024-03-23T13:48:19;11.44;53.26
72650;SHT31;61467;50.674;4.618;2024-03-23T13:50:47;11.04;54.82
72650;SHT31;61467;50.674;4.618;2024-03-23T13:53:13;11.18;55.69
72650;SHT31;61467;50.674;4.618;2024-03-23T13:55:46;10.91;55.59
72650;SHT31;61467;50.674;4.618;2024-03-23T13:58:14;11.12;56.24
72650;SHT31;61467;50.674;4.618;2024-03-23T14:00:41;10.55;56.31
72650;SHT31;61467;50.674;4.618;2024-03-23T14:03:08;10.09;58.83
72650;SHT31;61467;50.674;4.618;2024-03-23T14:05:35;9.65;60.69
72650;SHT31;61467;50.674;4.618;2024-03-23T14:08:01;9.86;61.63
72650;SHT31;61467;50.674;4.618;2024-03-23T14:10:28;9.93;59.47
72650;SHT31;61467;50.674;4.618;2024-03-23T14:12:54;10.27;62.33
72650;SHT31;61467;50.674;4.618;2024-03-23T14:15:22;10.30;59.67
72650;SHT31;61467;50.674;4.618;2024-03-23T14:17:49;10.24;60.35
72650;SHT31;61467;50.674;4.618;2024-03-23T14:20:16;10.60;58.87
72650;SHT31;61467;50.674;4.618;2024-03-23T14:22:42;10.43;57.26
72650;SHT31;61467;50.674;4.618;2024-03-23T14:25:10;10.60;57.57
72650;SHT31;61467;50.674;4.618;2024-03-23T14:27:36;10.84;56.24
72650;SHT31;61467;50.674;4.618;2024-03-23T14:30:04;11.13;55.68
72650;SHT31;61467;50.674;4.618;2024-03-23T14:32:32;11.23;55.76
72650;SHT31;61467;50.674;4.618;2024-03-23T14:34:59;10.88;56.70
72650;SHT31;61467;50.674;4.618;2024-03-23T14:37:25;10.79;54.23
72650;SHT31;61467;50.674;4.618;2024-03-23T14:39:53;10.16;55.65
72650;SHT31;61467;50.674;4.618;2024-03-23T14:42:18;10.30;54.58
72650;SHT31;61467;50.674;4.618;2024-03-23T14:44:45;10.41;54.45
72650;SHT31;61467;50.674;4.618;2024-03-23T14:47:11;10.23;55.93
72650;SHT31;61467;50.674;4.618;2024-03-23T14:49:39;9.96;57.19
72650;SHT31;61467;50.674;4.618;2024-03-23T14:52:05;10.00;59.19
72650;SHT31;61467;50.674;4.618;2024-03-23T14:54:32;10.20;60.48
72650;SHT31;61467;50.674;4.618;2024-03-23T14:56:58;10.40;59.36
72650;SHT31;61467;50.674;4.618;2024-03-23T14:59:25;10.02;58.36
72650;SHT31;61467;50.674;4.618;2024-03-23T15:01:51;9.82;59.30
72650;SHT31;61467;50.674;4.618;2024-03-23T15:04:18;9.66;59.57
72650;SHT31;61467;50.674;4.618;2024-03-23T15:06:46;9.87;59.56
72650;SHT31;61467;50.674;4.618;2024-03-23T15:09:15;10.14;58.60
72650;SHT31;61467;50.674;4.618;2024-03-23T15:11:41;10.79;57.75
72650;SHT31;61467;50.674;4.618;2024-03-23T15:14:08;10.78;55.78
72650;SHT31;61467;50.674;4.618;2024-03-23T15:16:36;11.11;55.86
72650;SHT31;61467;50.674;4.618;2024-03-23T15:19:03;10.91;55.84
72650;SHT31;61467;50.674;4.618;2024-03-23T15:21:31;11.02;54.74
72650;SHT31;61467;50.674;4.618;2024-03-23T15:24:00;10.96;55.48
72650;SHT31;61467;50.674;4.618;2024-03-23T15:26:26;10.89;55.92
72650;SHT31;61467;50.674;4.618;2024-03-23T15:28:52;11.08;55.31
72650;SHT31;61467;50.674;4.618;2024-03-23T15:31:37;11.01;55.32
72650;SHT31;61467;50.674;4.618;2024-03-23T15:34:04;10.86;56.47
72650;SHT31;61467;50.674;4.618;2024-03-23T15:36:30;10.92;55.79
72650;SHT31;61467;50.674;4.618;2024-03-23T15:38:57;10.88;55.88
72650;SHT31;61467;50.674;4.618;2024-03-23T15:41:25;10.82;55.43
72650;SHT31;61467;50.674;4.618;2024-03-23T15:43:52;10.68;55.13
72650;SHT31;61467;50.674;4.618;2024-03-23T15:46:18;10.55;56.82
72650;SHT31;61467;50.674;4.618;2024-03-23T15:48:45;10.37;56.92
72650;SHT31;61467;50.674;4.618;2024-03-23T15:51:12;10.50;57.08
72650;SHT31;61467;50.674;4.618;2024-03-23T15:53:39;10.72;56.45
72650;SHT31;61467;50.674;4.618;2024-03-23T15:56:06;10.72;57.03
72650;SHT31;61467;50.674;4.618;2024-03-23T15:58:34;10.68;55.90
72650;SHT31;61467;50.674;4.618;2024-03-23T16:01:01;10.67;56.07
72650;SHT31;61467;50.674;4.618;2024-03-23T16:03:29;10.60;55.79
72650;SHT31;61467;50.674;4.618;2024-03-23T16:05:56;10.64;57.17
72650;SHT31;61467;50.674;4.618;2024-03-23T16:08:24;10.79;56.05
72650;SHT31;61467;50.674;4.618;2024-03-23T16:10:51;10.63;56.03
72650;SHT31;61467;50.674;4.618;2024-03-23T16:13:18;10.85;55.84
72650;SHT31;61467;50.674;4.618;2024-03-23T16:15:53;10.61;56.11
72650;SHT31;61467;50.674;4.618;2024-03-23T16:18:20;10.68;56.45
72650;SHT31;61467;50.674;4.618;2024-03-23T16:20:52;10.34;55.32
72650;SHT31;61467;50.674;4.618;2024-03-23T16:23:19;10.65;55.24
72650;SHT31;61467;50.674;4.618;2024-03-23T16:25:47;10.67;56.86
72650;SHT31;61467;50.674;4.618;2024-03-23T16:28:22;10.55;55.44
72650;SHT31;61467;50.674;4.618;2024-03-23T16:30:55;10.69;54.75
72650;SHT31;61467;50.674;4.618;2024-03-23T16:33:22;10.71;54.13
72650;SHT31;61467;50.674;4.618;2024-03-23T16:35:58;10.82;52.57
72650;SHT31;61467;50.674;4.618;2024-03-23T16:38:25;10.64;54.29
72650;SHT31;61467;50.674;4.618;2024-03-23T16:40:58;10.65;53.83